createdAt,value
2022-11-19T00:00:49.240Z,23.3
2022-11-19T00:01:51.797Z,23.3
2022-11-19T00:02:54.158Z,23.3
2022-11-19T00:03:56.376Z,23.3
2022-11-19T00:04:58.343Z,23.3
2022-11-19T00:06:00.866Z,23.3
2022-11-19T00:07:03.471Z,23.3
2022-11-19T00:08:05.611Z,23.3
2022-11-19T00:09:07.539Z,23.3
2022-11-19T00:10:09.747Z,23.3
2022-11-19T00:11:12.243Z,23.3
2022-11-19T00:12:14.722Z,23.3
2022-11-19T00:13:17.294Z,23.3
2022-11-19T00:14:19.792Z,23.3
2022-11-19T00:15:21.995Z,23.3
2022-11-19T00:16:24.477Z,23.3
2022-11-19T00:17:26.953Z,23.3
2022-11-19T00:18:28.871Z,23.3
2022-11-19T00:19:31.074Z,23.3
2022-11-19T00:20:33.592Z,23.3
2022-11-19T00:21:36.253Z,23.3
2022-11-19T00:22:38.464Z,23.3
2022-11-19T00:23:40.386Z,23.3
2022-11-19T00:24:42.593Z,23.3
2022-11-19T00:25:44.794Z,23.3
2022-11-19T00:26:47.025Z,23.3
2022-11-19T00:27:49.515Z,23.3
2022-11-19T00:28:51.984Z,23.3
2022-11-19T00:29:54.463Z,23.3
2022-11-19T00:30:56.377Z,23.3
2022-11-19T00:31:58.860Z,23.3
2022-11-19T00:33:01.064Z,23.3
2022-11-19T00:34:03.539Z,23.3
2022-11-19T00:35:05.738Z,23.3
2022-11-19T00:36:08.271Z,23.3
2022-11-19T00:37:10.519Z,23.3
2022-11-19T00:38:12.995Z,23.3
2022-11-19T00:39:14.630Z,23.3
2022-11-19T00:40:17.114Z,23.3
2022-11-19T00:41:19.584Z,23.3
2022-11-19T00:42:21.535Z,23.3
2022-11-19T00:43:24.017Z,23.3
2022-11-19T00:44:26.506Z,23.3
2022-11-19T00:45:33.455Z,23.3
2022-11-19T00:46:35.519Z,23.2
2022-11-19T00:47:38.030Z,23.2
2022-11-19T00:48:40.255Z,23.2
2022-11-19T00:49:42.734Z,23.2
2022-11-19T00:50:44.933Z,23.2
2022-11-19T00:51:47.478Z,23.2
2022-11-19T00:52:49.519Z,23.2
2022-11-19T00:53:51.453Z,23.2
2022-11-19T00:54:53.925Z,23.2
2022-11-19T00:55:56.432Z,23.2
2022-11-19T00:56:58.629Z,23.2
2022-11-19T00:58:01.149Z,23.2
2022-11-19T00:59:03.364Z,23.2
2022-11-19T01:00:05.574Z,23.2
2022-11-19T01:01:07.647Z,23.2
2022-11-19T01:02:10.366Z,23.2
2022-11-19T01:03:12.840Z,23.2
2022-11-19T01:04:15.320Z,23.2
2022-11-19T01:05:17.793Z,23.2
2022-11-19T01:06:20.750Z,23.2
2022-11-19T01:07:23.413Z,23.2
2022-11-19T01:08:25.854Z,23.2
2022-11-19T01:09:28.332Z,23.2
2022-11-19T01:10:30.810Z,23.2
2022-11-19T01:11:33.289Z,23.2
2022-11-19T01:12:35.872Z,23.2
2022-11-19T01:13:38.085Z,23.3
2022-11-19T01:14:40.281Z,23.3
2022-11-19T01:15:42.749Z,23.2
2022-11-19T01:16:44.977Z,23.3
2022-11-19T01:17:47.466Z,23.3
2022-11-19T01:18:49.666Z,23.3
2022-11-19T01:19:52.141Z,23.3
2022-11-19T01:20:54.649Z,23.3
2022-11-19T01:21:57.147Z,23.3
2022-11-19T01:22:59.687Z,23.3
2022-11-19T01:24:01.934Z,23.3
2022-11-19T01:25:04.138Z,23.3
2022-11-19T01:26:06.613Z,23.3
2022-11-19T01:27:08.814Z,23.3
2022-11-19T01:28:11.285Z,23.3
2022-11-19T01:29:13.790Z,23.3
2022-11-19T01:30:16.023Z,23.3
2022-11-19T01:31:18.506Z,23.3
2022-11-19T01:32:21.016Z,23.3
2022-11-19T01:33:22.766Z,23.3
2022-11-19T01:34:24.709Z,23.3
2022-11-19T01:35:27.195Z,23.3
2022-11-19T01:36:29.686Z,23.3
2022-11-19T01:37:31.922Z,23.3
2022-11-19T01:38:34.180Z,23.3
2022-11-19T01:39:36.418Z,23.3
2022-11-19T01:40:38.348Z,23.3
2022-11-19T01:41:40.827Z,23.3
2022-11-19T01:42:43.325Z,23.3
2022-11-19T01:43:45.796Z,23.3
2022-11-19T01:44:48.315Z,23.3
2022-11-19T01:45:50.511Z,23.3
2022-11-19T01:46:52.998Z,23.3
2022-11-19T01:47:55.478Z,23.3
2022-11-19T01:48:57.676Z,23.3
2022-11-19T01:49:59.604Z,23.3
2022-11-19T01:51:02.100Z,23.3
2022-11-19T01:52:04.597Z,23.3
2022-11-19T01:53:07.072Z,23.3
2022-11-19T01:54:09.611Z,23.3
2022-11-19T01:55:11.887Z,23.3
2022-11-19T01:56:14.089Z,23.3
2022-11-19T01:57:16.290Z,23.3
2022-11-19T01:58:19.361Z,23.3
2022-11-19T01:59:22.922Z,23.3
2022-11-19T02:00:26.449Z,23.3
2022-11-19T02:01:29.213Z,23.3
2022-11-19T02:02:31.725Z,23.3
2022-11-19T02:03:34.208Z,23.3
2022-11-19T02:04:36.411Z,23.3
2022-11-19T02:05:38.337Z,23.3
2022-11-19T02:06:40.257Z,23.3
2022-11-19T02:07:42.469Z,23.3
2022-11-19T02:08:44.960Z,23.3
2022-11-19T02:09:47.504Z,23.3
2022-11-19T02:10:50.042Z,23.3
2022-11-19T02:11:52.526Z,23.3
2022-11-19T02:12:54.995Z,23.3
2022-11-19T02:13:57.474Z,23.3
2022-11-19T02:14:59.693Z,23.3
2022-11-19T02:16:02.193Z,23.3
2022-11-19T02:17:04.669Z,23.3
2022-11-19T02:18:07.137Z,23.3
2022-11-19T02:19:09.606Z,23.3
2022-11-19T02:20:11.810Z,23.3
2022-11-19T02:21:13.989Z,23.3
2022-11-19T02:22:16.480Z,23.3
2022-11-19T02:23:18.953Z,23.3
2022-11-19T02:24:21.433Z,23.3
2022-11-19T02:25:24.054Z,23.3
2022-11-19T02:26:26.567Z,23.3
2022-11-19T02:27:28.746Z,23.3
2022-11-19T02:28:31.228Z,23.3
2022-11-19T02:29:33.703Z,23.3
2022-11-19T02:30:36.201Z,23.3
2022-11-19T02:31:38.689Z,23.3
2022-11-19T02:32:40.612Z,23.3
2022-11-19T02:33:43.106Z,23.3
2022-11-19T02:34:45.601Z,23.3
2022-11-19T02:35:48.100Z,23.3
2022-11-19T02:36:50.581Z,23.3
2022-11-19T02:37:53.066Z,23.3
2022-11-19T02:38:55.544Z,23.2
2022-11-19T02:39:58.022Z,23.3
2022-11-19T02:40:59.977Z,23.3
2022-11-19T02:42:02.508Z,23.3
2022-11-19T02:43:05.001Z,23.3
2022-11-19T02:44:07.195Z,23.3
2022-11-19T02:45:09.657Z,23.3
2022-11-19T02:46:11.874Z,23.3
2022-11-19T02:47:14.366Z,23.3
2022-11-19T02:48:16.571Z,23.3
2022-11-19T02:49:20.062Z,23.3
2022-11-19T02:50:23.040Z,23.3
2022-11-19T02:51:25.224Z,23.3
2022-11-19T02:52:27.716Z,23.3
2022-11-19T02:53:30.201Z,23.3
2022-11-19T02:54:32.679Z,23.3
2022-11-19T02:55:34.885Z,23.3
2022-11-19T02:56:37.408Z,23.3
2022-11-19T02:57:39.921Z,23.2
2022-11-19T02:58:42.405Z,23.3
2022-11-19T02:59:44.623Z,23.3
2022-11-19T03:00:46.280Z,23.2
2022-11-19T03:01:48.327Z,23.2
2022-11-19T03:02:50.792Z,23.2
2022-11-19T03:03:53.265Z,23.3
2022-11-19T03:04:55.204Z,23.3
2022-11-19T03:05:57.403Z,23.2
2022-11-19T03:07:00.034Z,23.3
2022-11-19T03:08:02.683Z,23.2
2022-11-19T03:09:04.882Z,23.3
2022-11-19T03:10:06.821Z,23.2
2022-11-19T03:11:09.026Z,23.3
2022-11-19T03:12:11.551Z,23.2
2022-11-19T03:13:14.117Z,23.2
2022-11-19T03:14:16.596Z,23.2
2022-11-19T03:15:19.078Z,23.3
2022-11-19T03:16:21.563Z,23.2
2022-11-19T03:17:24.045Z,23.3
2022-11-19T03:18:26.568Z,23.3
2022-11-19T03:19:28.498Z,23.3
2022-11-19T03:20:30.977Z,23.3
2022-11-19T03:21:33.563Z,23.3
2022-11-19T03:22:35.472Z,23.3
2022-11-19T03:23:37.123Z,23.3
2022-11-19T03:24:39.606Z,23.3
2022-11-19T03:25:41.513Z,23.3
2022-11-19T03:26:43.439Z,23.3
2022-11-19T03:27:45.977Z,23.3
2022-11-19T03:28:48.500Z,23.3
2022-11-19T03:29:50.710Z,23.2
2022-11-19T03:30:52.635Z,23.3
2022-11-19T03:31:54.844Z,23.3
2022-11-19T03:32:57.059Z,23.3
2022-11-19T03:33:59.624Z,23.3
2022-11-19T03:35:02.100Z,23.3
2022-11-19T03:36:04.017Z,23.3
2022-11-19T03:37:06.215Z,23.3
2022-11-19T03:38:08.142Z,23.3
2022-11-19T03:39:10.636Z,23.3
2022-11-19T03:40:12.836Z,23.3
2022-11-19T03:41:15.019Z,23.3
2022-11-19T03:42:17.491Z,23.3
2022-11-19T03:43:20.121Z,23.3
2022-11-19T03:44:22.641Z,23.3
2022-11-19T03:45:24.849Z,23.3
2022-11-19T03:46:27.041Z,23.3
2022-11-19T03:47:29.520Z,23.3
2022-11-19T03:48:31.999Z,23.2
2022-11-19T03:49:34.511Z,23.2
2022-11-19T03:50:36.993Z,23.3
2022-11-19T03:51:39.471Z,23.2
2022-11-19T03:52:41.960Z,23.2
2022-11-19T03:53:44.437Z,23.2
2022-11-19T03:54:46.648Z,23.2
2022-11-19T03:55:49.132Z,23.2
2022-11-19T03:56:51.345Z,23.2
2022-11-19T03:57:53.815Z,23.2
2022-11-19T03:58:56.356Z,23.2
2022-11-19T03:59:58.903Z,23.2
2022-11-19T04:01:01.442Z,23.2
2022-11-19T04:02:04.080Z,23.2
2022-11-19T04:03:06.688Z,23.2
2022-11-19T04:04:09.179Z,23.2
2022-11-19T04:05:11.695Z,23.2
2022-11-19T04:06:13.614Z,23.2
2022-11-19T04:07:16.012Z,23.2
2022-11-19T04:08:18.356Z,23.2
2022-11-19T04:09:22.001Z,23.2
2022-11-19T04:10:24.754Z,23.2
2022-11-19T04:12:27.726Z,23.2
2022-11-19T04:13:30.197Z,23.2
2022-11-19T04:14:32.744Z,23.2
2022-11-19T04:15:35.257Z,23.2
2022-11-19T04:16:37.485Z,23.2
2022-11-19T04:17:39.993Z,23.2
2022-11-19T04:18:41.916Z,23.2
2022-11-19T04:19:44.425Z,23.2
2022-11-19T04:20:46.667Z,23.2
2022-11-19T04:21:48.861Z,23.2
2022-11-19T04:22:51.359Z,23.2
2022-11-19T04:23:53.832Z,23.2
2022-11-19T04:24:55.745Z,23.2
2022-11-19T04:25:58.219Z,23.2
2022-11-19T04:27:00.708Z,23.2
2022-11-19T04:28:02.935Z,23.2
2022-11-19T04:29:05.420Z,23.2
2022-11-19T04:30:07.944Z,23.2
2022-11-19T04:32:15.181Z,23.2
2022-11-19T04:33:17.671Z,23.2
2022-11-19T04:34:20.147Z,23.2
2022-11-19T04:35:22.387Z,23.2
2022-11-19T04:36:24.890Z,23.2
2022-11-19T04:37:27.373Z,23.2
2022-11-19T04:38:29.855Z,23.2
2022-11-19T04:39:32.061Z,23.2
2022-11-19T04:40:34.544Z,23.2
2022-11-19T04:41:37.013Z,23.2
2022-11-19T04:42:39.500Z,23.2
2022-11-19T04:43:41.973Z,23.2
2022-11-19T04:44:44.178Z,23.2
2022-11-19T04:45:46.717Z,23.2
2022-11-19T04:46:49.236Z,23.2
2022-11-19T04:47:51.708Z,23.2
2022-11-19T04:48:53.911Z,23.2
2022-11-19T04:49:56.103Z,23.2
2022-11-19T04:50:58.582Z,23.2
2022-11-19T04:52:00.783Z,23.2
2022-11-19T04:53:02.989Z,23.2
2022-11-19T04:54:05.474Z,23.2
2022-11-19T04:55:07.952Z,23.2
2022-11-19T04:56:10.127Z,23.2
2022-11-19T04:57:12.603Z,23.2
2022-11-19T04:58:14.901Z,23.2
2022-11-19T04:59:18.308Z,23.2
2022-11-19T05:00:21.605Z,23.2
2022-11-19T05:01:24.452Z,23.2
2022-11-19T05:02:27.160Z,23.2
2022-11-19T05:03:29.647Z,23.2
2022-11-19T05:04:32.128Z,23.2
2022-11-19T05:05:34.320Z,23.2
2022-11-19T05:06:36.495Z,23.2
2022-11-19T05:07:39.211Z,23.2
2022-11-19T05:08:41.995Z,23.2
2022-11-19T05:09:44.483Z,23.2
2022-11-19T05:10:46.955Z,23.2
2022-11-19T05:11:49.442Z,23.2
2022-11-19T05:12:51.365Z,23.2
2022-11-19T05:13:53.570Z,23.2
2022-11-19T05:14:56.046Z,23.2
2022-11-19T05:15:58.227Z,23.2
2022-11-19T05:17:00.470Z,23.2
2022-11-19T05:18:02.998Z,23.2
2022-11-19T05:19:04.645Z,23.2
2022-11-19T05:20:07.136Z,23.2
2022-11-19T05:21:09.620Z,23.2
2022-11-19T05:22:11.824Z,23.2
2022-11-19T05:23:14.343Z,23.2
2022-11-19T05:24:16.550Z,23.2
2022-11-19T05:25:18.769Z,23.2
2022-11-19T05:26:21.241Z,23.2
2022-11-19T05:27:23.725Z,23.3
2022-11-19T05:29:31.233Z,23.2
2022-11-19T05:30:33.772Z,23.3
2022-11-19T05:31:35.699Z,23.3
2022-11-19T05:32:38.257Z,23.2
2022-11-19T05:33:40.770Z,23.3
2022-11-19T05:34:42.421Z,23.3
2022-11-19T05:35:44.898Z,23.3
2022-11-19T05:36:47.384Z,23.3
2022-11-19T05:37:49.311Z,23.2
2022-11-19T05:38:51.803Z,23.3
2022-11-19T05:39:53.991Z,23.2
2022-11-19T05:40:56.479Z,23.3
2022-11-19T05:41:58.976Z,23.3
2022-11-19T05:43:01.453Z,23.3
2022-11-19T05:44:03.648Z,23.3
2022-11-19T05:45:05.853Z,23.2
2022-11-19T05:46:08.334Z,23.3
2022-11-19T05:47:10.804Z,23.3
2022-11-19T05:48:13.119Z,23.3
2022-11-19T05:49:15.635Z,23.3
2022-11-19T05:50:18.403Z,23.3
2022-11-19T05:51:20.312Z,23.2
2022-11-19T05:52:22.515Z,23.2
2022-11-19T05:53:24.990Z,23.2
2022-11-19T05:54:27.503Z,23.2
2022-11-19T05:55:29.901Z,23.3
2022-11-19T05:56:32.373Z,23.3
2022-11-19T05:57:34.563Z,23.3
2022-11-19T05:58:37.061Z,23.2
2022-11-19T06:00:44.647Z,23.3
2022-11-19T06:01:46.847Z,23.2
2022-11-19T06:02:49.455Z,23.2
2022-11-19T06:03:52.152Z,23.2
2022-11-19T06:04:54.677Z,23.2
2022-11-19T06:05:57.153Z,23.2
2022-11-19T06:06:59.262Z,23.2
2022-11-19T06:08:01.674Z,23.2
2022-11-19T06:09:03.857Z,23.2
2022-11-19T06:10:06.376Z,23.2
2022-11-19T06:11:08.588Z,23.2
2022-11-19T06:12:10.527Z,23.2
2022-11-19T06:13:12.729Z,23.2
2022-11-19T06:14:14.908Z,23.2
2022-11-19T06:15:17.385Z,23.2
2022-11-19T06:16:19.591Z,23.2
2022-11-19T06:17:21.539Z,23.2
2022-11-19T06:18:23.739Z,23.2
2022-11-19T06:19:25.754Z,23.2
2022-11-19T06:20:28.267Z,23.2
2022-11-19T06:21:30.834Z,23.2
2022-11-19T06:22:33.036Z,23.2
2022-11-19T06:23:35.533Z,23.2
2022-11-19T06:24:38.010Z,23.2
2022-11-19T06:25:40.519Z,23.2
2022-11-19T06:26:42.988Z,23.2
2022-11-19T06:27:45.468Z,23.2
2022-11-19T06:28:47.956Z,23.2
2022-11-19T06:30:55.436Z,23.2
2022-11-19T06:31:57.363Z,23.2
2022-11-19T06:32:59.562Z,23.2
2022-11-19T06:34:02.084Z,23.2
2022-11-19T06:35:04.611Z,23.2
2022-11-19T06:36:07.121Z,23.2
2022-11-19T06:37:09.914Z,23.2
2022-11-19T06:38:12.365Z,23.2
2022-11-19T06:39:14.960Z,23.2
2022-11-19T06:40:17.158Z,23.2
2022-11-19T06:41:19.670Z,23.2
2022-11-19T06:42:21.877Z,23.2
2022-11-19T06:43:24.349Z,23.2
2022-11-19T06:44:26.824Z,23.2
2022-11-19T06:45:29.304Z,23.2
2022-11-19T06:46:31.794Z,23.2
2022-11-19T06:47:34.279Z,23.2
2022-11-19T06:48:36.201Z,23.2
2022-11-19T06:49:38.137Z,23.2
2022-11-19T06:50:40.095Z,23.2
2022-11-19T06:51:42.333Z,23.2
2022-11-19T06:52:44.811Z,23.2
2022-11-19T06:53:47.290Z,23.2
2022-11-19T06:54:48.992Z,23.2
2022-11-19T06:55:51.477Z,23.2
2022-11-19T06:56:53.969Z,23.2
2022-11-19T06:57:56.448Z,23.2
2022-11-19T06:58:58.952Z,23.2
2022-11-19T07:00:01.446Z,23.2
2022-11-19T07:01:03.646Z,23.2
2022-11-19T07:02:06.444Z,23.2
2022-11-19T07:03:08.550Z,23.2
2022-11-19T07:04:11.033Z,23.2
2022-11-19T07:05:13.500Z,23.2
2022-11-19T07:06:16.028Z,23.2
2022-11-19T07:07:18.695Z,23.2
2022-11-19T07:08:21.033Z,23.2
2022-11-19T07:09:23.515Z,23.2
2022-11-19T07:10:25.733Z,23.2
2022-11-19T07:11:27.938Z,23.2
2022-11-19T07:12:30.177Z,23.2
2022-11-19T07:13:32.643Z,23.2
2022-11-19T07:14:34.582Z,23.2
2022-11-19T07:15:37.068Z,23.2
2022-11-19T07:16:39.562Z,23.2
2022-11-19T07:17:41.522Z,23.2
2022-11-19T07:18:44.003Z,23.2
2022-11-19T07:19:46.492Z,23.2
2022-11-19T07:20:49.130Z,23.2
2022-11-19T07:21:51.788Z,23.2
2022-11-19T07:23:59.112Z,23.2
2022-11-19T07:25:01.608Z,23.2
2022-11-19T07:26:03.826Z,23.2
2022-11-19T07:27:06.046Z,23.2
2022-11-19T07:28:08.608Z,23.2
2022-11-19T07:29:10.865Z,23.2
2022-11-19T07:30:13.351Z,23.2
2022-11-19T07:31:16.210Z,23.2
2022-11-19T07:32:18.276Z,23.2
2022-11-19T07:33:20.847Z,23.2
2022-11-19T07:34:23.363Z,23.2
2022-11-19T07:35:25.025Z,23.2
2022-11-19T07:36:26.976Z,23.2
2022-11-19T07:37:28.949Z,23.2
2022-11-19T07:39:36.502Z,23.2
2022-11-19T07:40:39.022Z,23.2
2022-11-19T07:41:41.529Z,23.2
2022-11-19T07:42:43.763Z,23.2
2022-11-19T07:43:46.341Z,23.2
2022-11-19T07:45:53.581Z,23.2
2022-11-19T07:46:56.085Z,23.2
2022-11-19T07:47:58.578Z,23.2
2022-11-19T07:49:00.804Z,23.2
2022-11-19T07:50:03.050Z,23.2
2022-11-19T07:51:05.251Z,23.2
2022-11-19T07:52:07.188Z,23.2
2022-11-19T07:53:09.440Z,23.2
2022-11-19T07:54:12.045Z,23.2
2022-11-19T07:55:29.232Z,23.2
2022-11-19T07:56:31.196Z,23.2
2022-11-19T07:57:33.743Z,23.2
2022-11-19T07:58:36.002Z,23.2
2022-11-19T07:59:38.524Z,23.2
2022-11-19T08:00:40.498Z,23.2
2022-11-19T08:01:43.264Z,23.2
2022-11-19T08:02:45.984Z,23.2
2022-11-19T08:04:53.251Z,23.2
2022-11-19T08:05:55.205Z,23.2
2022-11-19T08:06:57.658Z,23.2
2022-11-19T08:08:00.088Z,23.2
2022-11-19T08:09:02.765Z,23.2
2022-11-19T08:10:05.356Z,23.2
2022-11-19T08:11:07.298Z,23.2
2022-11-19T08:12:09.800Z,23.2
2022-11-19T08:13:12.273Z,23.2
2022-11-19T08:14:14.754Z,23.2
2022-11-19T08:15:17.263Z,23.2
2022-11-19T08:16:19.444Z,23.2
2022-11-19T08:17:21.741Z,23.2
2022-11-19T08:19:29.201Z,23.2
2022-11-19T08:20:30.564Z,23.2
2022-11-19T08:21:32.781Z,23.2
2022-11-19T08:22:35.627Z,23.2
2022-11-19T08:23:38.450Z,23.2
2022-11-19T08:24:41.089Z,23.2
2022-11-19T08:25:43.423Z,23.2
2022-11-19T08:26:45.923Z,23.2
2022-11-19T08:27:48.455Z,23.2
2022-11-19T08:28:50.987Z,23.2
2022-11-19T08:29:53.500Z,23.2
2022-11-19T08:30:56.159Z,23.2
2022-11-19T08:31:58.422Z,23.2
2022-11-19T08:33:00.614Z,23.2
2022-11-19T08:34:02.851Z,23.2
2022-11-19T08:35:05.365Z,23.2
2022-11-19T08:36:07.682Z,23.2
2022-11-19T08:37:10.183Z,23.2
2022-11-19T08:38:12.439Z,23.2
2022-11-19T08:39:14.632Z,23.2
2022-11-19T08:40:17.190Z,23.2
2022-11-19T08:41:19.775Z,23.2
2022-11-19T08:42:22.015Z,23.2
2022-11-19T08:43:24.505Z,23.2
2022-11-19T08:44:26.717Z,23.2
2022-11-19T08:45:28.927Z,23.2
2022-11-19T08:46:31.444Z,23.2
2022-11-19T08:47:34.023Z,23.2
2022-11-19T08:48:37.288Z,23.2
2022-11-19T08:49:39.624Z,23.2
2022-11-19T08:50:42.259Z,23.2
2022-11-19T08:51:45.002Z,23.2
2022-11-19T08:52:47.399Z,23.2
2022-11-19T08:53:49.955Z,23.2
2022-11-19T08:54:52.026Z,23.2
2022-11-19T08:55:54.687Z,23.2
2022-11-19T08:56:57.300Z,23.2
2022-11-19T08:57:59.791Z,23.2
2022-11-19T08:59:04.227Z,23.2
2022-11-19T09:00:07.402Z,23.2
2022-11-19T09:01:09.676Z,23.2
2022-11-19T09:02:12.397Z,23.2
2022-11-19T09:03:14.619Z,23.2
2022-11-19T09:04:17.240Z,23.2
2022-11-19T09:05:20.608Z,23.2
2022-11-19T09:06:22.836Z,23.2
2022-11-19T09:07:25.225Z,23.2
2022-11-19T09:08:27.519Z,23.2
2022-11-19T09:09:30.024Z,23.2
2022-11-19T09:10:32.692Z,23.2
2022-11-19T09:12:40.041Z,23.2
2022-11-19T09:13:42.332Z,23.1
2022-11-19T09:14:44.623Z,23.1
2022-11-19T09:15:47.153Z,23.1
2022-11-19T09:16:49.413Z,23.1
2022-11-19T09:17:51.691Z,23.1
2022-11-19T09:18:54.174Z,23.1
2022-11-19T09:19:56.407Z,23.1
2022-11-19T09:20:59.168Z,23
2022-11-19T09:22:01.113Z,23
2022-11-19T09:23:03.386Z,23
2022-11-19T09:24:05.370Z,23
2022-11-19T09:25:07.598Z,23
2022-11-19T09:26:09.509Z,23
2022-11-19T09:27:11.996Z,23
2022-11-19T09:28:14.532Z,23
2022-11-19T09:29:16.925Z,23
2022-11-19T09:30:18.898Z,23
2022-11-19T09:31:21.142Z,23
2022-11-19T09:33:28.640Z,23
2022-11-19T09:34:30.843Z,22.9
2022-11-19T09:35:33.427Z,22.9
2022-11-19T09:36:36.969Z,22.9
2022-11-19T09:37:39.445Z,22.9
2022-11-19T09:38:41.652Z,22.9
2022-11-19T09:39:44.155Z,22.9
2022-11-19T09:40:45.820Z,22.9
2022-11-19T09:41:47.781Z,22.9
2022-11-19T09:42:49.471Z,22.9
2022-11-19T09:43:51.773Z,22.9
2022-11-19T09:44:54.080Z,22.8
2022-11-19T09:45:56.297Z,22.8
2022-11-19T09:46:58.234Z,22.8
2022-11-19T09:48:00.726Z,22.8
2022-11-19T09:49:02.941Z,22.8
2022-11-19T09:50:05.429Z,22.8
2022-11-19T09:51:07.944Z,22.8
2022-11-19T09:52:09.896Z,22.8
2022-11-19T09:53:12.391Z,22.8
2022-11-19T09:54:14.642Z,22.8
2022-11-19T09:55:17.147Z,22.8
2022-11-19T09:56:19.662Z,22.8
2022-11-19T09:57:21.622Z,22.7
2022-11-19T09:58:24.126Z,22.7
2022-11-19T09:59:26.404Z,22.7
2022-11-19T10:00:28.668Z,22.7
2022-11-19T10:01:30.933Z,22.7
2022-11-19T10:02:33.372Z,22.7
2022-11-19T10:03:35.468Z,22.7
2022-11-19T10:04:38.003Z,22.7
2022-11-19T10:05:40.241Z,22.7
2022-11-19T10:06:42.221Z,22.7
2022-11-19T10:07:44.699Z,22.7
2022-11-19T10:08:47.192Z,22.7
2022-11-19T10:09:49.101Z,22.7
2022-11-19T10:10:51.593Z,22.7
2022-11-19T10:11:53.796Z,22.7
2022-11-19T10:12:56.004Z,22.7
2022-11-19T10:13:58.487Z,22.7
2022-11-19T10:15:01.030Z,22.7
2022-11-19T10:16:03.653Z,22.7
2022-11-19T10:17:05.880Z,22.7
2022-11-19T10:18:07.805Z,22.7
2022-11-19T10:19:10.459Z,22.7
2022-11-19T10:20:12.944Z,22.7
2022-11-19T10:21:15.422Z,22.7
2022-11-19T10:22:17.647Z,22.6
2022-11-19T10:23:19.850Z,22.6
2022-11-19T10:24:23.498Z,22.7
2022-11-19T10:25:25.739Z,22.7
2022-11-19T10:26:28.244Z,22.6
2022-11-19T10:27:30.542Z,22.6
2022-11-19T10:28:32.793Z,22.7
2022-11-19T10:29:35.350Z,22.7
2022-11-19T10:30:37.906Z,22.7
2022-11-19T10:31:40.565Z,22.7
2022-11-19T10:32:42.526Z,22.7
2022-11-19T10:33:44.254Z,22.7
2022-11-19T10:34:46.794Z,22.7
2022-11-19T10:35:49.310Z,22.7
2022-11-19T10:36:51.510Z,22.7
2022-11-19T10:37:54.027Z,22.6
2022-11-19T10:38:56.241Z,22.6
2022-11-19T10:39:58.262Z,22.6
2022-11-19T10:40:59.937Z,22.6
2022-11-19T10:42:02.167Z,22.6
2022-11-19T10:43:04.149Z,22.6
2022-11-19T10:44:06.380Z,22.6
2022-11-19T10:45:08.592Z,22.6
2022-11-19T10:46:10.296Z,22.6
2022-11-19T10:47:12.550Z,22.6
2022-11-19T10:48:15.080Z,22.6
2022-11-19T10:49:18.697Z,22.6
2022-11-19T10:50:21.820Z,22.6
2022-11-19T10:51:24.087Z,22.6
2022-11-19T10:52:26.305Z,22.5
2022-11-19T10:53:28.242Z,22.5
2022-11-19T10:54:30.471Z,22.5
2022-11-19T10:55:32.985Z,22.5
2022-11-19T10:56:34.921Z,22.5
2022-11-19T10:57:36.861Z,22.5
2022-11-19T10:58:38.770Z,22.5
2022-11-19T10:59:41.288Z,22.5
2022-11-19T11:00:43.949Z,22.5
2022-11-19T11:01:46.534Z,22.5
2022-11-19T11:02:49.210Z,22.5
2022-11-19T11:03:51.550Z,22.5
2022-11-19T11:04:54.064Z,22.5
2022-11-19T11:05:55.987Z,22.5
2022-11-19T11:06:58.944Z,22.5
2022-11-19T11:08:01.792Z,22.5
2022-11-19T11:09:04.074Z,22.5
2022-11-19T11:10:06.587Z,22.5
2022-11-19T11:11:08.776Z,22.5
2022-11-19T11:12:11.339Z,22.5
2022-11-19T11:13:13.823Z,22.5
2022-11-19T11:14:16.383Z,22.5
2022-11-19T11:15:18.060Z,22.5
2022-11-19T11:16:20.017Z,22.5
2022-11-19T11:17:22.545Z,22.5
2022-11-19T11:18:25.097Z,22.6
2022-11-19T11:19:27.002Z,22.6
2022-11-19T11:20:29.238Z,22.6
2022-11-19T11:21:31.739Z,22.6
2022-11-19T11:22:34.306Z,22.6
2022-11-19T11:23:36.557Z,22.6
2022-11-19T11:24:38.521Z,22.6
2022-11-19T11:25:41.031Z,22.6
2022-11-19T11:26:43.537Z,22.6
2022-11-19T11:27:45.737Z,22.6
2022-11-19T11:28:47.402Z,22.6
2022-11-19T11:29:49.608Z,22.6
2022-11-19T11:30:52.091Z,22.6
2022-11-19T11:31:54.579Z,22.6
2022-11-19T11:32:56.839Z,22.6
2022-11-19T11:33:59.406Z,22.7
2022-11-19T11:36:06.965Z,22.7
2022-11-19T11:37:09.216Z,22.7
2022-11-19T11:38:11.728Z,22.7
2022-11-19T11:39:14.234Z,22.7
2022-11-19T11:40:16.741Z,22.7
2022-11-19T11:42:23.943Z,22.7
2022-11-19T11:43:26.434Z,22.7
2022-11-19T11:44:28.938Z,22.7
2022-11-19T11:45:31.164Z,22.7
2022-11-19T11:46:33.395Z,22.7
2022-11-19T11:47:35.352Z,22.7
2022-11-19T11:48:37.992Z,22.7
2022-11-19T11:49:40.533Z,22.7
2022-11-19T11:50:43.017Z,22.7
2022-11-19T11:51:45.244Z,22.7
2022-11-19T11:52:47.467Z,22.7
2022-11-19T11:53:49.995Z,22.7
2022-11-19T11:54:52.497Z,22.7
2022-11-19T11:55:54.732Z,22.7
2022-11-19T11:56:57.259Z,22.8
2022-11-19T11:57:59.756Z,22.8
2022-11-19T11:59:02.290Z,22.7
2022-11-19T12:00:04.550Z,22.8
2022-11-19T12:01:11.482Z,22.8
2022-11-19T12:02:14.073Z,22.8
2022-11-19T12:03:16.493Z,22.8
2022-11-19T12:04:19.031Z,22.8
2022-11-19T12:05:21.375Z,22.8
2022-11-19T12:06:23.886Z,22.8
2022-11-19T12:07:26.427Z,22.8
2022-11-19T12:08:29.192Z,22.8
2022-11-19T12:09:31.438Z,22.8
2022-11-19T12:10:33.685Z,22.8
2022-11-19T12:11:35.915Z,22.8
2022-11-19T12:12:38.147Z,22.8
2022-11-19T12:13:40.642Z,22.8
2022-11-19T12:14:42.879Z,22.8
2022-11-19T12:15:45.365Z,22.8
2022-11-19T12:16:47.863Z,22.8
2022-11-19T12:17:50.377Z,22.8
2022-11-19T12:18:52.873Z,22.8
2022-11-19T12:19:55.438Z,22.8
2022-11-19T12:20:58.027Z,22.8
2022-11-19T12:22:00.527Z,22.8
2022-11-19T12:23:02.742Z,22.8
2022-11-19T12:24:05.227Z,22.8
2022-11-19T12:25:07.447Z,22.8
2022-11-19T12:26:09.938Z,22.8
2022-11-19T12:27:12.426Z,22.8
2022-11-19T12:28:14.909Z,22.8
2022-11-19T12:29:17.699Z,22.8
2022-11-19T12:30:21.069Z,22.8
2022-11-19T12:32:28.592Z,22.8
2022-11-19T12:33:31.121Z,22.8
2022-11-19T12:34:33.616Z,22.8
2022-11-19T12:35:35.890Z,22.8
2022-11-19T12:36:38.435Z,22.8
2022-11-19T12:37:40.653Z,22.8
2022-11-19T12:38:42.876Z,22.8
2022-11-19T12:39:44.805Z,22.8
2022-11-19T12:40:47.336Z,22.8
2022-11-19T12:41:49.555Z,22.8
2022-11-19T12:42:51.467Z,22.8
2022-11-19T12:43:53.394Z,22.8
2022-11-19T12:44:55.617Z,22.8
2022-11-19T12:45:57.525Z,22.8
2022-11-19T12:47:00.017Z,22.8
2022-11-19T12:48:02.227Z,22.8
2022-11-19T12:49:04.448Z,22.8
2022-11-19T12:50:06.941Z,22.8
2022-11-19T12:51:09.480Z,22.8
2022-11-19T12:52:11.737Z,22.8
2022-11-19T12:53:13.970Z,22.8
2022-11-19T12:55:21.160Z,22.8
2022-11-19T12:56:23.803Z,22.8
2022-11-19T12:57:25.715Z,22.8
2022-11-19T12:58:27.653Z,22.8
2022-11-19T12:59:30.134Z,22.8
2022-11-19T13:01:37.762Z,22.8
2022-11-19T13:02:40.771Z,22.8
2022-11-19T13:03:43.585Z,22.8
2022-11-19T13:04:45.909Z,22.8
2022-11-19T13:05:48.470Z,22.8
2022-11-19T13:06:50.796Z,22.8
2022-11-19T13:07:53.459Z,22.8
2022-11-19T13:08:55.977Z,22.8
2022-11-19T13:09:58.484Z,22.9
2022-11-19T13:11:00.432Z,22.9
2022-11-19T13:12:02.961Z,22.9
2022-11-19T13:13:05.493Z,22.9
2022-11-19T13:14:07.734Z,22.9
2022-11-19T13:15:09.943Z,23
2022-11-19T13:16:12.442Z,23
2022-11-19T13:17:14.380Z,23
2022-11-19T13:18:16.887Z,23
2022-11-19T13:19:20.167Z,23
2022-11-19T13:20:24.110Z,23
2022-11-19T13:21:26.603Z,23.1
2022-11-19T13:22:28.878Z,23.1
2022-11-19T13:23:31.415Z,23.1
2022-11-19T13:24:33.622Z,23.1
2022-11-19T13:25:35.574Z,23.2
2022-11-19T13:26:37.521Z,23.2
2022-11-19T13:27:39.774Z,23.2
2022-11-19T13:28:42.068Z,23.2
2022-11-19T13:29:44.596Z,23.2
2022-11-19T13:30:47.084Z,23.2
2022-11-19T13:31:49.577Z,23.2
2022-11-19T13:32:52.097Z,23.2
2022-11-19T13:33:54.020Z,23.2
2022-11-19T13:34:56.635Z,23.2
2022-11-19T13:35:58.847Z,23.2
2022-11-19T13:37:01.346Z,23.2
2022-11-19T13:38:03.886Z,23.2
2022-11-19T13:39:06.421Z,23.2
2022-11-19T13:40:08.959Z,23.2
2022-11-19T13:41:11.202Z,23.2
2022-11-19T13:42:13.430Z,23.2
2022-11-19T13:44:20.918Z,23.3
2022-11-19T13:45:23.411Z,23.3
2022-11-19T13:46:25.616Z,23.3
2022-11-19T13:47:27.824Z,23.3
2022-11-19T13:48:30.051Z,23.3
2022-11-19T13:49:32.271Z,23.3
2022-11-19T13:50:34.516Z,23.3
2022-11-19T13:51:36.718Z,23.3
2022-11-19T13:52:38.678Z,23.3
2022-11-19T13:53:41.235Z,23.3
2022-11-19T13:54:43.491Z,23.3
2022-11-19T13:55:46.101Z,23.3
2022-11-19T13:56:48.313Z,23.3
2022-11-19T13:57:50.513Z,23.3
2022-11-19T13:58:52.745Z,23.4
2022-11-19T13:59:55.244Z,23.4
2022-11-19T14:00:57.892Z,23.3
2022-11-19T14:02:01.219Z,23.3
2022-11-19T14:03:03.456Z,23.3
2022-11-19T14:04:05.951Z,23.3
2022-11-19T14:05:08.435Z,23.3
2022-11-19T14:06:10.372Z,23.3
2022-11-19T14:07:12.999Z,23.2
2022-11-19T14:08:15.675Z,23.2
2022-11-19T14:09:19.166Z,23.2
2022-11-19T14:10:22.683Z,23.2
2022-11-19T14:11:24.940Z,23.2